Hamnavoe — VSTY7 — position and weather

sailwx.info

Track history (hours):
 
Tides and Currents Weather Stations Pressure Air Temp Water Temp Dewpoint Dewpoint Depression Visibility Wind Speed Wind Dir Waves Ship Positions

Hamnavoe

Operator: NorthLink Orkey & Shetland Ferries Ltd

Last reported at 2015-Mar-29 04:33 UTC. Time now 2015-Mar-29 06:05 UTC.
Position N 58°58' W 003°18'.

Length 112 m; draft 4.2 m.

Type: Ship. MMSI: 235449000.

Date/timePositionNaut miles runAvg speedWind from/ knotsBaromVisibWave heightAir tempDewpointWater temp
2015-Mar-29 04:33N 58°58' W 003°18'0 0.0
2015-Mar-29 03:33N 58°58' W 003°18'0 0.0
2015-Mar-29 02:33N 58°58' W 003°18'0 0.0
2015-Mar-29 01:33N 58°58' W 003°18'0 0.0
2015-Mar-29 00:33N 58°58' W 003°18'0 0.0
2015-Mar-28 23:33N 58°58' W 003°18'0 0.0
2015-Mar-28 22:33N 58°58' W 003°18'0 0.0
2015-Mar-28 21:33N 58°58' W 003°18'1 0.5
2015-Mar-28 20:33N 58°57' W 003°17'1313.1
2015-Mar-28 19:33N 58°44' W 003°16'1211.5
2015-Mar-28 18:33N 58°37' W 003°32'1010.3
2015-Mar-28 17:34N 58°47' W 003°30'13 9.4
2015-Mar-28 16:12N 58°58' W 003°18'0 0.0
2015-Mar-28 15:27N 58°58' W 003°18'0 0.0
2015-Mar-28 14:33N 58°58' W 003°18'1514.8
2015-Mar-28 13:33N 58°44' W 003°30'8 7.7
2015-Mar-28 12:33N 58°37' W 003°32'1515.0
2015-Mar-28 11:33N 58°51' W 003°28'8 8.1
2015-Mar-28 10:32N 58°58' W 003°18'7 7.5
2015-Mar-28 09:33N 58°52' W 003°28'1614.4
2015-Mar-28 08:27N 58°37' W 003°32'7 8.2
2015-Mar-28 07:34N 58°44' W 003°34'1615.5
2015-Mar-28 06:33N 58°57' W 003°17'1 0.8
2015-Mar-28 05:28N 58°58' W 003°18'0 0.0
2015-Mar-28 04:31N 58°58' W 003°18'0 0.0
2015-Mar-28 03:28N 58°58' W 003°18'0 0.0
2015-Mar-28 02:31N 58°58' W 003°18'0 0.0
2015-Mar-28 01:31N 58°58' W 003°18'0 0.0
2015-Mar-28 00:31N 58°58' W 003°18'0 0.0
2015-Mar-27 23:31N 58°58' W 003°18'0 0.0
2015-Mar-27 22:31N 58°58' W 003°18'0 0.0
2015-Mar-27 21:31N 58°58' W 003°18'0 0.0
2015-Mar-27 20:34N 58°58' W 003°18'1312.9
2015-Mar-27 19:33N 58°46' W 003°29'10 7.6
2015-Mar-27 18:16N 58°37' W 003°32'1116.0
2015-Mar-27 17:33N 58°48' W 003°29'1211.4
2015-Mar-27 16:32N 58°58' W 003°18'0 0.0
2015-Mar-27 11:20N 58°58' W 003°18'0 0.0
2015-Mar-27 10:24N 58°58' W 003°18'910.2
2015-Mar-27 09:33N 58°51' W 003°28'7 3.3
2015-Mar-27 07:33N 58°45' W 003°30'1414.3
2015-Mar-27 06:33N 58°58' W 003°18'0 0.2
2015-Mar-27 05:33N 58°58' W 003°18'0 0.0
2015-Mar-27 04:33N 58°58' W 003°18'0 0.0
2015-Mar-27 03:33N 58°58' W 003°18'0 0.0
2015-Mar-27 02:27N 58°58' W 003°18'0 0.0
2015-Mar-27 01:33N 58°58' W 003°18'0 0.0
2015-Mar-27 00:33N 58°58' W 003°18'0 0.0
2015-Mar-26 23:33N 58°58' W 003°18'0 0.0
2015-Mar-26 22:33N 58°58' W 003°18'0 0.0
2015-Mar-26 21:33N 58°58' W 003°18'0 0.0
2015-Mar-26 20:33N 58°58' W 003°18'1111.2
2015-Mar-26 19:33N 58°48' W 003°29'12 9.4
2015-Mar-26 18:19N 58°37' W 003°32'1114.4
2015-Mar-26 17:33N 58°47' W 003°29'1212.0
2015-Mar-26 16:33N 58°58' W 003°18'0 0.0
2015-Mar-26 15:32N 58°58' W 003°18'0 0.0
2015-Mar-26 14:34N 58°58' W 003°18'0 0.0
2015-Mar-26 13:33N 58°58' W 003°18'0 0.0
2015-Mar-26 12:31N 58°58' W 003°18'0 0.0
2015-Mar-26 11:33N 58°58' W 003°18'0 0.0
2015-Mar-26 10:33N 58°58' W 003°18'7 6.6
2015-Mar-26 09:33N 58°53' W 003°27'1712.9
2015-Mar-26 08:15N 58°37' W 003°32'710.4
2015-Mar-26 07:32N 58°44' W 003°31'1515.2
2015-Mar-26 06:33N 58°57' W 003°18'0 0.4
2015-Mar-26 05:25N 58°58' W 003°18'0 0.0
2015-Mar-26 04:25N 58°58' W 003°18'0 0.0
2015-Mar-26 03:13N 58°58' W 003°18'0 0.0
2015-Mar-26 02:25N 58°58' W 003°18'0 0.0
2015-Mar-26 01:10N 58°58' W 003°18'0 0.0
2015-Mar-26 00:28N 58°58' W 003°18'0 0.0
2015-Mar-25 23:31N 58°58' W 003°18'0 0.0
2015-Mar-25 22:31N 58°58' W 003°18'0 0.0
2015-Mar-25 21:31N 58°58' W 003°18'0 0.0
2015-Mar-25 20:33N 58°58' W 003°18'1211.7
2015-Mar-25 19:33N 58°48' W 003°29'10 7.2
2015-Mar-25 18:09N 58°38' W 003°31'1117.7
2015-Mar-25 17:33N 58°48' W 003°29'1111.1
2015-Mar-25 16:33N 58°58' W 003°18'0 0.0
2015-Mar-25 15:26N 58°58' W 003°18'0 0.0
2015-Mar-25 14:32N 58°58' W 003°18'0 0.0
2015-Mar-25 13:26N 58°58' W 003°18'0 0.0
2015-Mar-25 12:32N 58°58' W 003°18'0 0.0
2015-Mar-25 11:32N 58°58' W 003°18'0 0.0
2015-Mar-25 10:32N 58°58' W 003°18'8 8.6
2015-Mar-25 09:33N 58°52' W 003°29'8 4.0
2015-Mar-25 07:33N 58°44' W 003°30'1515.1
2015-Mar-25 06:33N 58°57' W 003°18'0 0.5
2015-Mar-25 05:29N 58°58' W 003°18'0 0.0
2015-Mar-25 04:29N 58°58' W 003°18'0 0.0
2015-Mar-25 03:29N 58°58' W 003°18'0 0.0
2015-Mar-25 02:29N 58°58' W 003°18'0 0.0
2015-Mar-25 01:17N 58°58' W 003°18'0 0.0
2015-Mar-25 00:32N 58°58' W 003°18'0 0.0
2015-Mar-24 23:29N 58°58' W 003°18'0 0.0
2015-Mar-24 22:29N 58°58' W 003°18'0 0.0
2015-Mar-24 21:32N 58°58' W 003°18'0 0.0
2015-Mar-24 20:33N 58°58' W 003°18'1413.5
2015-Mar-24 19:33N 58°46' W 003°30'8 6.2
2015-Mar-24 18:12N 58°38' W 003°31'1217.8
2015-Mar-24 17:33N 58°49' W 003°29'10 7.3
2015-Mar-24 16:08N 58°58' W 003°18'0 0.0
2015-Mar-24 13:20N 58°58' W 003°18'0 0.0
2015-Mar-24 12:32N 58°58' W 003°18'0 0.0
2015-Mar-24 11:32N 58°58' W 003°18'0 0.0
2015-Mar-24 10:32N 58°58' W 003°18'9 9.6
2015-Mar-24 09:33N 58°50' W 003°29'1411.6
2015-Mar-24 08:22N 58°37' W 003°32'810.3
2015-Mar-24 07:33N 58°45' W 003°31'1414.2
2015-Mar-24 06:33N 58°58' W 003°18'0 0.3
2015-Mar-24 05:33N 58°58' W 003°18'0 0.0
2015-Mar-24 04:33N 58°58' W 003°18'0 0.0
2015-Mar-24 03:33N 58°58' W 003°18'0 0.0
2015-Mar-24 02:33N 58°58' W 003°18'0 0.0
2015-Mar-24 01:33N 58°58' W 003°18'0 0.0
2015-Mar-24 00:33N 58°58' W 003°18'0 0.0
2015-Mar-23 23:33N 58°58' W 003°18'0 0.0
2015-Mar-23 22:33N 58°58' W 003°18'0 0.0
2015-Mar-23 21:33N 58°58' W 003°18'0 0.0
2015-Mar-23 20:33N 58°58' W 003°18'1313.4
2015-Mar-23 19:34N 58°46' W 003°31'8 6.0
2015-Mar-23 18:11N 58°38' W 003°31'1117.2
2015-Mar-23 17:33N 58°49' W 003°30'1111.2
2015-Mar-23 16:33N 58°58' W 003°18'0 0.0
2015-Mar-23 15:33N 58°58' W 003°18'0 0.0
2015-Mar-23 14:33N 58°58' W 003°18'0 0.0
2015-Mar-23 13:33N 58°58' W 003°18'0 0.0
2015-Mar-23 12:30N 58°58' W 003°18'0 0.0
2015-Mar-23 11:24N 58°58' W 003°18'0 0.0
2015-Mar-23 10:33N 58°58' W 003°18'1312.6
2015-Mar-23 09:33N 58°46' W 003°11'1414.4
2015-Mar-23 08:33N 58°37' W 003°32'9 9.3
2015-Mar-23 07:33N 58°46' W 003°31'1313.4
2015-Mar-23 06:33N 58°58' W 003°18'0 0.2
2015-Mar-23 05:24N 58°58' W 003°18'0 0.0
2015-Mar-23 04:33N 58°58' W 003°18'0 0.0
2015-Mar-23 03:33N 58°58' W 003°18'0 0.0
2015-Mar-23 02:33N 58°58' W 003°18'0 0.0
2015-Mar-23 01:33N 58°58' W 003°18'0 0.0
2015-Mar-23 00:30N 58°58' W 003°18'0 0.0
2015-Mar-22 23:33N 58°58' W 003°18'0 0.0
2015-Mar-22 22:30N 58°58' W 003°18'0 0.0
2015-Mar-22 21:33N 58°58' W 003°18'0 0.0
2015-Mar-22 20:33N 58°58' W 003°18'1312.7
2015-Mar-22 19:34N 58°47' W 003°30'10 9.4
2015-Mar-22 18:28N 58°37' W 003°32'1213.5
2015-Mar-22 17:33N 58°49' W 003°28'1010.5
2015-Mar-22 16:33N 58°58' W 003°18'0 0.0
2015-Mar-22 15:32N 58°58' W 003°18'0 0.0
2015-Mar-22 14:32N 58°58' W 003°18'0 0.0
2015-Mar-22 13:29N 58°58' W 003°18'1112.2
2015-Mar-22 12:33N 58°48' W 003°29'1210.9
2015-Mar-22 11:30N 58°37' W 003°32'0 0.1
2015-Mar-22 10:33N 58°37' W 003°32'1817.7
2015-Mar-22 09:33N 58°54' W 003°29'7 6.5
2015-Mar-22 08:30N 58°58' W 003°18'0 0.0
2015-Mar-22 07:33N 58°58' W 003°18'0 0.0
2015-Mar-22 06:33N 58°58' W 003°18'0 0.0
2015-Mar-22 05:33N 58°58' W 003°18'0 0.0
2015-Mar-22 04:33N 58°58' W 003°18'0 0.0
2015-Mar-22 03:33N 58°58' W 003°18'0 0.0
2015-Mar-22 02:33N 58°58' W 003°18'0 0.0
2015-Mar-22 01:33N 58°58' W 003°18'0 0.0
2015-Mar-22 00:33N 58°58' W 003°18'0 0.0
2015-Mar-21 23:33N 58°58' W 003°18'0 0.0
2015-Mar-21 22:33N 58°58' W 003°18'0 0.0
2015-Mar-21 21:33N 58°58' W 003°18'0 0.0
2015-Mar-21 20:23N 58°58' W 003°18'1112.9
2015-Mar-21 19:33N 58°49' W 003°29'11 8.3
2015-Mar-21 18:12N 58°38' W 003°31'1117.5
2015-Mar-21 17:33N 58°49' W 003°28'10 9.4
2015-Mar-21 16:28N 58°58' W 003°18'0 0.0
2015-Mar-21 15:16N 58°58' W 003°18'1 0.5
2015-Mar-21 13:33N 58°57' W 003°17'1514.6
2015-Mar-21 12:33N 58°44' W 003°30'1 0.4
2015-Mar-21 10:05N 58°43' W 003°29'1018.9
2015-Mar-21 09:33N 58°53' W 003°27'7 6.8
2015-Mar-21 08:33N 58°58' W 003°18'0 0.0
2015-Mar-21 07:33N 58°58' W 003°18'0 0.0
2015-Mar-21 06:32N 58°58' W 003°18'0 0.0
2015-Mar-21 05:34N 58°58' W 003°18'0 0.0
2015-Mar-21 04:33N 58°58' W 003°18'0 0.0
2015-Mar-21 03:33N 58°58' W 003°18'0 0.0
2015-Mar-21 02:33N 58°58' W 003°18'0 0.0
2015-Mar-21 01:33N 58°58' W 003°18'0 0.0
2015-Mar-21 00:33N 58°58' W 003°18'0 0.0
2015-Mar-20 23:33N 58°58' W 003°18'0 0.0
2015-Mar-20 22:33N 58°58' W 003°18'0 0.0
2015-Mar-20 21:33N 58°58' W 003°18'1 1.2
2015-Mar-20 20:33N 58°57' W 003°16'1413.6
2015-Mar-20 19:33N 58°43' W 003°18'1010.0
2015-Mar-20 18:33N 58°37' W 003°32'1212.4
2015-Mar-20 17:33N 58°49' W 003°29'1110.5
2015-Mar-20 16:33N 58°58' W 003°18'0 0.0
2015-Mar-20 15:31N 58°58' W 003°18'0 0.0
2015-Mar-20 14:31N 58°58' W 003°18'0 0.0
2015-Mar-20 13:33N 58°58' W 003°18'0 0.0
2015-Mar-20 12:33N 58°58' W 003°18'0 0.0
2015-Mar-20 11:33N 58°58' W 003°18'0 0.0
2015-Mar-20 10:33N 58°58' W 003°18'8 8.0
2015-Mar-20 09:33N 58°52' W 003°28'1611.7
2015-Mar-20 08:14N 58°37' W 003°32'812.0
2015-Mar-20 07:33N 58°45' W 003°30'1414.4
2015-Mar-20 06:33N 58°57' W 003°18'0 0.3
2015-Mar-20 05:32N 58°58' W 003°18'0 0.0
2015-Mar-20 04:33N 58°58' W 003°18'0 0.0
2015-Mar-20 03:33N 58°58' W 003°18'0 0.0
2015-Mar-20 02:33N 58°58' W 003°18'0 0.0
2015-Mar-20 01:33N 58°58' W 003°18'0 0.0
2015-Mar-20 00:33N 58°58' W 003°18'0 0.0
2015-Mar-19 23:33N 58°58' W 003°18'0 0.0
2015-Mar-19 22:33N 58°58' W 003°18'0 0.0
2015-Mar-19 21:33N 58°58' W 003°18'0 0.0
2015-Mar-19 20:33N 58°58' W 003°18'1212.2
2015-Mar-19 19:34N 58°47' W 003°29'1110.6
2015-Mar-19 18:33N 58°37' W 003°32'1212.2
2015-Mar-19 17:33N 58°49' W 003°29'1110.7
2015-Mar-19 16:33N 58°58' W 003°18'0 0.0
2015-Mar-19 15:32N 58°58' W 003°18'0 0.0
2015-Mar-19 14:32N 58°58' W 003°18'0 0.0
2015-Mar-19 13:32N 58°58' W 003°18'0 0.0
2015-Mar-19 10:16N 58°58' W 003°18'811.8
2015-Mar-19 09:33N 58°51' W 003°28'1514.9
2015-Mar-19 08:33N 58°37' W 003°32'8 7.5
2015-Mar-19 07:33N 58°44' W 003°29'1514.8
2015-Mar-19 06:33N 58°57' W 003°18'0 0.3
2015-Mar-19 05:33N 58°58' W 003°18'  
Track history (hours):
 
Tides and Currents Weather Stations Pressure Air Temp Water Temp Dewpoint Dewpoint Depression Visibility Wind Speed Wind Dir Waves Ship Positions

Hamnavoe

Operator: NorthLink Orkey & Shetland Ferries Ltd

Last reported at 2015-Mar-29 04:33 UTC. Time now 2015-Mar-29 06:05 UTC.
Position N 58°58' W 003°18'.

Length 112 m; draft 4.2 m.

Type: Ship. MMSI: 235449000.

Date/timePositionNaut miles runAvg speedWind from/ knotsBaromVisibWave heightAir tempDewpointWater temp
2015-Mar-29 04:33N 58°58' W 003°18'0 0.0
2015-Mar-29 03:33N 58°58' W 003°18'0 0.0
2015-Mar-29 02:33N 58°58' W 003°18'0 0.0
2015-Mar-29 01:33N 58°58' W 003°18'0 0.0
2015-Mar-29 00:33N 58°58' W 003°18'0 0.0
2015-Mar-28 23:33N 58°58' W 003°18'0 0.0
2015-Mar-28 22:33N 58°58' W 003°18'0 0.0
2015-Mar-28 21:33N 58°58' W 003°18'1 0.5
2015-Mar-28 20:33N 58°57' W 003°17'1313.1
2015-Mar-28 19:33N 58°44' W 003°16'1211.5
2015-Mar-28 18:33N 58°37' W 003°32'1010.3
2015-Mar-28 17:34N 58°47' W 003°30'13 9.4
2015-Mar-28 16:12N 58°58' W 003°18'0 0.0
2015-Mar-28 15:27N 58°58' W 003°18'0 0.0
2015-Mar-28 14:33N 58°58' W 003°18'1514.8
2015-Mar-28 13:33N 58°44' W 003°30'8 7.7
2015-Mar-28 12:33N 58°37' W 003°32'1515.0
2015-Mar-28 11:33N 58°51' W 003°28'8 8.1
2015-Mar-28 10:32N 58°58' W 003°18'7 7.5
2015-Mar-28 09:33N 58°52' W 003°28'1614.4
2015-Mar-28 08:27N 58°37' W 003°32'7 8.2
2015-Mar-28 07:34N 58°44' W 003°34'1615.5
2015-Mar-28 06:33N 58°57' W 003°17'1 0.8
2015-Mar-28 05:28N 58°58' W 003°18'0 0.0
2015-Mar-28 04:31N 58°58' W 003°18'0 0.0
2015-Mar-28 03:28N 58°58' W 003°18'0 0.0
2015-Mar-28 02:31N 58°58' W 003°18'0 0.0
2015-Mar-28 01:31N 58°58' W 003°18'0 0.0
2015-Mar-28 00:31N 58°58' W 003°18'0 0.0
2015-Mar-27 23:31N 58°58' W 003°18'0 0.0
2015-Mar-27 22:31N 58°58' W 003°18'0 0.0
2015-Mar-27 21:31N 58°58' W 003°18'0 0.0
2015-Mar-27 20:34N 58°58' W 003°18'1312.9
2015-Mar-27 19:33N 58°46' W 003°29'10 7.6
2015-Mar-27 18:16N 58°37' W 003°32'1116.0
2015-Mar-27 17:33N 58°48' W 003°29'1211.4
2015-Mar-27 16:32N 58°58' W 003°18'0 0.0
2015-Mar-27 11:20N 58°58' W 003°18'0 0.0
2015-Mar-27 10:24N 58°58' W 003°18'910.2
2015-Mar-27 09:33N 58°51' W 003°28'7 3.3
2015-Mar-27 07:33N 58°45' W 003°30'1414.3
2015-Mar-27 06:33N 58°58' W 003°18'0 0.2
2015-Mar-27 05:33N 58°58' W 003°18'0 0.0
2015-Mar-27 04:33N 58°58' W 003°18'0 0.0
2015-Mar-27 03:33N 58°58' W 003°18'0 0.0
2015-Mar-27 02:27N 58°58' W 003°18'0 0.0
2015-Mar-27 01:33N 58°58' W 003°18'0 0.0
2015-Mar-27 00:33N 58°58' W 003°18'0 0.0
2015-Mar-26 23:33N 58°58' W 003°18'0 0.0
2015-Mar-26 22:33N 58°58' W 003°18'0 0.0
2015-Mar-26 21:33N 58°58' W 003°18'0 0.0
2015-Mar-26 20:33N 58°58' W 003°18'1111.2
2015-Mar-26 19:33N 58°48' W 003°29'12 9.4
2015-Mar-26 18:19N 58°37' W 003°32'1114.4
2015-Mar-26 17:33N 58°47' W 003°29'1212.0
2015-Mar-26 16:33N 58°58' W 003°18'0 0.0
2015-Mar-26 15:32N 58°58' W 003°18'0 0.0
2015-Mar-26 14:34N 58°58' W 003°18'0 0.0
2015-Mar-26 13:33N 58°58' W 003°18'0 0.0
2015-Mar-26 12:31N 58°58' W 003°18'0 0.0
2015-Mar-26 11:33N 58°58' W 003°18'0 0.0
2015-Mar-26 10:33N 58°58' W 003°18'7 6.6
2015-Mar-26 09:33N 58°53' W 003°27'1712.9
2015-Mar-26 08:15N 58°37' W 003°32'710.4
2015-Mar-26 07:32N 58°44' W 003°31'1515.2
2015-Mar-26 06:33N 58°57' W 003°18'0 0.4
2015-Mar-26 05:25N 58°58' W 003°18'0 0.0
2015-Mar-26 04:25N 58°58' W 003°18'0 0.0
2015-Mar-26 03:13N 58°58' W 003°18'0 0.0
2015-Mar-26 02:25N 58°58' W 003°18'0 0.0
2015-Mar-26 01:10N 58°58' W 003°18'0 0.0
2015-Mar-26 00:28N 58°58' W 003°18'0 0.0
2015-Mar-25 23:31N 58°58' W 003°18'0 0.0
2015-Mar-25 22:31N 58°58' W 003°18'0 0.0
2015-Mar-25 21:31N 58°58' W 003°18'0 0.0
2015-Mar-25 20:33N 58°58' W 003°18'1211.7
2015-Mar-25 19:33N 58°48' W 003°29'10 7.2
2015-Mar-25 18:09N 58°38' W 003°31'1117.7
2015-Mar-25 17:33N 58°48' W 003°29'1111.1
2015-Mar-25 16:33N 58°58' W 003°18'0 0.0
2015-Mar-25 15:26N 58°58' W 003°18'0 0.0
2015-Mar-25 14:32N 58°58' W 003°18'0 0.0
2015-Mar-25 13:26N 58°58' W 003°18'0 0.0
2015-Mar-25 12:32N 58°58' W 003°18'0 0.0
2015-Mar-25 11:32N 58°58' W 003°18'0 0.0
2015-Mar-25 10:32N 58°58' W 003°18'8 8.6
2015-Mar-25 09:33N 58°52' W 003°29'8 4.0
2015-Mar-25 07:33N 58°44' W 003°30'1515.1
2015-Mar-25 06:33N 58°57' W 003°18'0 0.5
2015-Mar-25 05:29N 58°58' W 003°18'0 0.0
2015-Mar-25 04:29N 58°58' W 003°18'0 0.0
2015-Mar-25 03:29N 58°58' W 003°18'0 0.0
2015-Mar-25 02:29N 58°58' W 003°18'0 0.0
2015-Mar-25 01:17N 58°58' W 003°18'0 0.0
2015-Mar-25 00:32N 58°58' W 003°18'0 0.0
2015-Mar-24 23:29N 58°58' W 003°18'0 0.0
2015-Mar-24 22:29N 58°58' W 003°18'0 0.0
2015-Mar-24 21:32N 58°58' W 003°18'0 0.0
2015-Mar-24 20:33N 58°58' W 003°18'1413.5
2015-Mar-24 19:33N 58°46' W 003°30'8 6.2
2015-Mar-24 18:12N 58°38' W 003°31'1217.8
2015-Mar-24 17:33N 58°49' W 003°29'10 7.3
2015-Mar-24 16:08N 58°58' W 003°18'0 0.0
2015-Mar-24 13:20N 58°58' W 003°18'0 0.0
2015-Mar-24 12:32N 58°58' W 003°18'0 0.0
2015-Mar-24 11:32N 58°58' W 003°18'0 0.0
2015-Mar-24 10:32N 58°58' W 003°18'9 9.6
2015-Mar-24 09:33N 58°50' W 003°29'1411.6
2015-Mar-24 08:22N 58°37' W 003°32'810.3
2015-Mar-24 07:33N 58°45' W 003°31'1414.2
2015-Mar-24 06:33N 58°58' W 003°18'0 0.3
2015-Mar-24 05:33N 58°58' W 003°18'0 0.0
2015-Mar-24 04:33N 58°58' W 003°18'0 0.0
2015-Mar-24 03:33N 58°58' W 003°18'0 0.0
2015-Mar-24 02:33N 58°58' W 003°18'0 0.0
2015-Mar-24 01:33N 58°58' W 003°18'0 0.0
2015-Mar-24 00:33N 58°58' W 003°18'0 0.0
2015-Mar-23 23:33N 58°58' W 003°18'0 0.0
2015-Mar-23 22:33N 58°58' W 003°18'0 0.0
2015-Mar-23 21:33N 58°58' W 003°18'0 0.0
2015-Mar-23 20:33N 58°58' W 003°18'1313.4
2015-Mar-23 19:34N 58°46' W 003°31'8 6.0
2015-Mar-23 18:11N 58°38' W 003°31'1117.2
2015-Mar-23 17:33N 58°49' W 003°30'1111.2
2015-Mar-23 16:33N 58°58' W 003°18'0 0.0
2015-Mar-23 15:33N 58°58' W 003°18'0 0.0
2015-Mar-23 14:33N 58°58' W 003°18'0 0.0
2015-Mar-23 13:33N 58°58' W 003°18'0 0.0
2015-Mar-23 12:30N 58°58' W 003°18'0 0.0
2015-Mar-23 11:24N 58°58' W 003°18'0 0.0
2015-Mar-23 10:33N 58°58' W 003°18'1312.6
2015-Mar-23 09:33N 58°46' W 003°11'1414.4
2015-Mar-23 08:33N 58°37' W 003°32'9 9.3
2015-Mar-23 07:33N 58°46' W 003°31'1313.4
2015-Mar-23 06:33N 58°58' W 003°18'0 0.2
2015-Mar-23 05:24N 58°58' W 003°18'0 0.0
2015-Mar-23 04:33N 58°58' W 003°18'0 0.0
2015-Mar-23 03:33N 58°58' W 003°18'0 0.0
2015-Mar-23 02:33N 58°58' W 003°18'0 0.0
2015-Mar-23 01:33N 58°58' W 003°18'0 0.0
2015-Mar-23 00:30N 58°58' W 003°18'0 0.0
2015-Mar-22 23:33N 58°58' W 003°18'0 0.0
2015-Mar-22 22:30N 58°58' W 003°18'0 0.0
2015-Mar-22 21:33N 58°58' W 003°18'0 0.0
2015-Mar-22 20:33N 58°58' W 003°18'1312.7
2015-Mar-22 19:34N 58°47' W 003°30'10 9.4
2015-Mar-22 18:28N 58°37' W 003°32'1213.5
2015-Mar-22 17:33N 58°49' W 003°28'1010.5
2015-Mar-22 16:33N 58°58' W 003°18'0 0.0
2015-Mar-22 15:32N 58°58' W 003°18'0 0.0
2015-Mar-22 14:32N 58°58' W 003°18'0 0.0
2015-Mar-22 13:29N 58°58' W 003°18'1112.2
2015-Mar-22 12:33N 58°48' W 003°29'1210.9
2015-Mar-22 11:30N 58°37' W 003°32'0 0.1
2015-Mar-22 10:33N 58°37' W 003°32'1817.7
2015-Mar-22 09:33N 58°54' W 003°29'7 6.5
2015-Mar-22 08:30N 58°58' W 003°18'0 0.0
2015-Mar-22 07:33N 58°58' W 003°18'0 0.0
2015-Mar-22 06:33N 58°58' W 003°18'0 0.0
2015-Mar-22 05:33N 58°58' W 003°18'0 0.0
2015-Mar-22 04:33N 58°58' W 003°18'0 0.0
2015-Mar-22 03:33N 58°58' W 003°18'0 0.0
2015-Mar-22 02:33N 58°58' W 003°18'0 0.0
2015-Mar-22 01:33N 58°58' W 003°18'0 0.0
2015-Mar-22 00:33N 58°58' W 003°18'0 0.0
2015-Mar-21 23:33N 58°58' W 003°18'0 0.0
2015-Mar-21 22:33N 58°58' W 003°18'0 0.0
2015-Mar-21 21:33N 58°58' W 003°18'0 0.0
2015-Mar-21 20:23N 58°58' W 003°18'1112.9
2015-Mar-21 19:33N 58°49' W 003°29'11 8.3
2015-Mar-21 18:12N 58°38' W 003°31'1117.5
2015-Mar-21 17:33N 58°49' W 003°28'10 9.4
2015-Mar-21 16:28N 58°58' W 003°18'0 0.0
2015-Mar-21 15:16N 58°58' W 003°18'1 0.5
2015-Mar-21 13:33N 58°57' W 003°17'1514.6
2015-Mar-21 12:33N 58°44' W 003°30'1 0.4
2015-Mar-21 10:05N 58°43' W 003°29'1018.9
2015-Mar-21 09:33N 58°53' W 003°27'7 6.8
2015-Mar-21 08:33N 58°58' W 003°18'0 0.0
2015-Mar-21 07:33N 58°58' W 003°18'0 0.0
2015-Mar-21 06:32N 58°58' W 003°18'0 0.0
2015-Mar-21 05:34N 58°58' W 003°18'0 0.0
2015-Mar-21 04:33N 58°58' W 003°18'0 0.0
2015-Mar-21 03:33N 58°58' W 003°18'0 0.0
2015-Mar-21 02:33N 58°58' W 003°18'0 0.0
2015-Mar-21 01:33N 58°58' W 003°18'0 0.0
2015-Mar-21 00:33N 58°58' W 003°18'0 0.0
2015-Mar-20 23:33N 58°58' W 003°18'0 0.0
2015-Mar-20 22:33N 58°58' W 003°18'0 0.0
2015-Mar-20 21:33N 58°58' W 003°18'1 1.2
2015-Mar-20 20:33N 58°57' W 003°16'1413.6
2015-Mar-20 19:33N 58°43' W 003°18'1010.0
2015-Mar-20 18:33N 58°37' W 003°32'1212.4
2015-Mar-20 17:33N 58°49' W 003°29'1110.5
2015-Mar-20 16:33N 58°58' W 003°18'0 0.0
2015-Mar-20 15:31N 58°58' W 003°18'0 0.0
2015-Mar-20 14:31N 58°58' W 003°18'0 0.0
2015-Mar-20 13:33N 58°58' W 003°18'0 0.0
2015-Mar-20 12:33N 58°58' W 003°18'0 0.0
2015-Mar-20 11:33N 58°58' W 003°18'0 0.0
2015-Mar-20 10:33N 58°58' W 003°18'8 8.0
2015-Mar-20 09:33N 58°52' W 003°28'1611.7
2015-Mar-20 08:14N 58°37' W 003°32'812.0
2015-Mar-20 07:33N 58°45' W 003°30'1414.4
2015-Mar-20 06:33N 58°57' W 003°18'0 0.3
2015-Mar-20 05:32N 58°58' W 003°18'0 0.0
2015-Mar-20 04:33N 58°58' W 003°18'0 0.0
2015-Mar-20 03:33N 58°58' W 003°18'0 0.0
2015-Mar-20 02:33N 58°58' W 003°18'0 0.0
2015-Mar-20 01:33N 58°58' W 003°18'0 0.0
2015-Mar-20 00:33N 58°58' W 003°18'0 0.0
2015-Mar-19 23:33N 58°58' W 003°18'0 0.0
2015-Mar-19 22:33N 58°58' W 003°18'0 0.0
2015-Mar-19 21:33N 58°58' W 003°18'0 0.0
2015-Mar-19 20:33N 58°58' W 003°18'1212.2
2015-Mar-19 19:34N 58°47' W 003°29'1110.6
2015-Mar-19 18:33N 58°37' W 003°32'1212.2
2015-Mar-19 17:33N 58°49' W 003°29'1110.7
2015-Mar-19 16:33N 58°58' W 003°18'0 0.0
2015-Mar-19 15:32N 58°58' W 003°18'0 0.0
2015-Mar-19 14:32N 58°58' W 003°18'0 0.0
2015-Mar-19 13:32N 58°58' W 003°18'0 0.0
2015-Mar-19 10:16N 58°58' W 003°18'811.8
2015-Mar-19 09:33N 58°51' W 003°28'1514.9
2015-Mar-19 08:33N 58°37' W 003°32'8 7.5
2015-Mar-19 07:33N 58°44' W 003°29'1514.8
2015-Mar-19 06:33N 58°57' W 003°18'0 0.3
2015-Mar-19 05:33N 58°58' W 003°18'  

Dump ship's entire track history